Time;durP1;ratioP1;P1;durP2;ratioP2;P2;SDS_P1;SDS_P2;PMS_P1;PMS_P2;Temp;Humidity;BMP_temperature;BMP_pressure;BME280_temperature;BME280_humidity;BME280_pressure;Samples;Min_cycle;Max_cycle;Signal;HPM_P1;HPM_P2
2023/05/11 00:01:16;;;;;;;;;;;13.00;99.90;;;;;;5031991;28;19921;-64
2023/05/11 00:03:42;;;;;;;;;;;13.00;99.90;;;;;;5021516;28;19921;-65
2023/05/11 00:06:07;;;;;;;;;;;13.00;99.90;;;;;;5026394;28;19925;-65
2023/05/11 00:08:33;;;;;;;;;;;12.90;99.90;;;;;;5031306;28;19949;-64
2023/05/11 00:11:01;;;;;;;;;;;12.90;99.90;;;;;;5026135;28;19925;-65
2023/05/11 00:13:27;;;;;;;;;;;12.90;99.90;;;;;;5023926;28;19921;-64
2023/05/11 00:15:52;;;;;;;;;;;12.90;99.90;;;;;;5031951;28;19944;-66
2023/05/11 00:18:17;;;;;;;;;;;12.90;99.90;;;;;;5031585;28;19961;-64
2023/05/11 00:20:44;;;;;;;;;;;12.90;99.90;;;;;;5018288;28;20271;-64
2023/05/11 00:23:09;;;;;;;;;;;12.80;99.90;;;;;;5026007;28;19953;-64
2023/05/11 00:25:35;;;;;;;;;;;12.90;99.90;;;;;;5031734;28;19972;-65
2023/05/11 00:28:00;;;;;;;;;;;12.80;99.90;;;;;;5020411;28;20380;-64
2023/05/11 00:30:26;;;;;;;;;;;12.80;99.90;;;;;;5030898;28;20020;-64
2023/05/11 00:32:51;;;;;;;;;;;12.80;99.90;;;;;;5031778;28;19921;-64
2023/05/11 00:35:17;;;;;;;;;;;12.80;99.90;;;;;;5020615;28;19921;-66
2023/05/11 00:37:42;;;;;;;;;;;12.80;99.90;;;;;;5027409;28;19928;-64
2023/05/11 00:40:08;;;;;;;;;;;12.80;99.90;;;;;;5031550;28;19928;-65
2023/05/11 00:42:34;;;;;;;;;;;12.80;99.90;;;;;;5028024;28;19960;-65
2023/05/11 00:44:59;;;;;;;;;;;12.80;99.90;;;;;;5025040;28;19928;-66
2023/05/11 00:47:25;;;;;;;;;;;12.70;99.90;;;;;;5030472;28;19929;-65
2023/05/11 00:49:52;;;;;;;;;;;12.70;99.90;;;;;;5031877;28;19921;-64
2023/05/11 00:52:18;;;;;;;;;;;12.70;99.90;;;;;;5023714;28;20408;-66
2023/05/11 00:54:44;;;;;;;;;;;12.70;99.90;;;;;;5021240;28;19921;-64
2023/05/11 00:57:10;;;;;;;;;;;12.70;99.90;;;;;;5031453;28;19928;-64
2023/05/11 00:59:35;;;;;;;;;;;12.70;99.90;;;;;;5026396;28;19932;-64
2023/05/11 01:02:02;;;;;;;;;;;12.70;99.90;;;;;;5017762;28;19965;-64
2023/05/11 01:04:27;;;;;;;;;;;12.70;99.90;;;;;;5028421;28;19921;-64
2023/05/11 01:06:53;;;;;;;;;;;12.70;99.90;;;;;;5031050;28;19928;-64
2023/05/11 01:09:18;;;;;;;;;;;12.70;99.90;;;;;;5023506;28;19928;-64
2023/05/11 01:11:47;;;;;;;;;;;12.70;99.90;;;;;;5016516;28;19921;-64
2023/05/11 01:14:15;;;;;;;;;;;12.70;99.90;;;;;;5032107;28;19928;-64
2023/05/11 01:16:43;;;;;;;;;;;12.60;99.90;;;;;;5026294;28;20015;-65
2023/05/11 01:19:08;;;;;;;;;;;12.60;99.90;;;;;;5020109;28;19925;-65
2023/05/11 01:21:34;;;;;;;;;;;12.70;99.90;;;;;;5032279;28;20639;-64
2023/05/11 01:24:14;;;;;;;;;;;12.60;99.90;;;;;;5035264;28;19979;-64
2023/05/11 01:26:48;;;;;;;;;;;12.60;99.90;;;;;;5023259;28;19921;-64
2023/05/11 01:29:13;;;;;;;;;;;12.60;99.90;;;;;;5032559;28;20383;-64
2023/05/11 01:31:45;;;;;;;;;;;12.60;99.90;;;;;;5034642;28;19979;-66
2023/05/11 01:34:12;;;;;;;;;;;12.60;99.90;;;;;;5025264;28;19925;-64
2023/05/11 01:36:43;;;;;;;;;;;12.60;99.90;;;;;;5025226;28;20455;-64
2023/05/11 01:39:09;;;;;;;;;;;12.60;99.90;;;;;;5033916;28;20357;-64
2023/05/11 01:41:36;;;;;;;;;;;12.50;99.90;;;;;;5034780;28;19944;-64
2023/05/11 01:44:04;;;;;;;;;;;12.60;99.90;;;;;;5027785;28;19921;-63
2023/05/11 01:46:31;;;;;;;;;;;12.60;99.90;;;;;;5033615;28;19943;-64
2023/05/11 01:48:58;;;;;;;;;;;12.60;99.90;;;;;;5034256;28;20410;-64
2023/05/11 01:51:26;;;;;;;;;;;12.60;99.90;;;;;;5023450;28;19921;-65
2023/05/11 01:53:52;;;;;;;;;;;12.60;99.90;;;;;;5031719;28;19964;-65
2023/05/11 01:56:19;;;;;;;;;;;12.60;99.90;;;;;;5034167;28;19927;-64
2023/05/11 01:58:45;;;;;;;;;;;12.60;99.90;;;;;;5034288;28;19921;-64
2023/05/11 02:01:11;;;;;;;;;;;12.50;99.90;;;;;;5029670;28;19929;-64
2023/05/11 02:03:37;;;;;;;;;;;12.50;99.90;;;;;;5033944;28;19927;-64
2023/05/11 02:06:04;;;;;;;;;;;12.50;99.90;;;;;;5034143;28;20012;-64
2023/05/11 02:08:30;;;;;;;;;;;12.50;99.90;;;;;;5021751;28;20354;-64
2023/05/11 02:10:56;;;;;;;;;;;12.50;99.90;;;;;;5028715;28;19925;-64
2023/05/11 02:13:23;;;;;;;;;;;12.50;99.90;;;;;;5033728;28;19921;-65
2023/05/11 02:15:49;;;;;;;;;;;12.50;99.90;;;;;;5034130;28;20379;-64
2023/05/11 02:18:15;;;;;;;;;;;12.50;99.90;;;;;;5022399;28;19922;-64
2023/05/11 02:20:42;;;;;;;;;;;12.40;99.90;;;;;;5025651;28;19929;-64
2023/05/11 02:23:08;;;;;;;;;;;12.40;99.90;;;;;;5033545;28;20291;-64
2023/05/11 02:25:35;;;;;;;;;;;12.40;99.90;;;;;;5022610;28;20272;-64
2023/05/11 02:28:01;;;;;;;;;;;12.40;99.90;;;;;;5025548;28;19925;-65
2023/05/11 02:30:27;;;;;;;;;;;12.40;99.90;;;;;;5033589;28;19944;-64
2023/05/11 02:32:55;;;;;;;;;;;12.40;99.90;;;;;;5024042;28;19928;-65
2023/05/11 02:35:31;;;;;;;;;;;12.40;99.90;;;;;;5033132;28;19921;-64
2023/05/11 02:37:58;;;;;;;;;;;12.40;99.90;;;;;;5013454;28;20342;-64
2023/05/11 02:40:27;;;;;;;;;;;12.40;99.90;;;;;;5010645;28;19925;-64
2023/05/11 02:42:55;;;;;;;;;;;12.40;99.90;;;;;;5028719;28;19925;-64
2023/05/11 02:45:22;;;;;;;;;;;12.40;99.90;;;;;;5033209;28;19921;-66
2023/05/11 02:47:51;;;;;;;;;;;12.40;99.90;;;;;;5033202;28;19932;-67
2023/05/11 02:50:18;;;;;;;;;;;12.40;99.90;;;;;;5028618;28;19932;-65
2023/05/11 02:52:45;;;;;;;;;;;12.40;99.90;;;;;;5026243;28;19998;-67
2023/05/11 02:55:12;;;;;;;;;;;12.40;99.90;;;;;;5031561;28;19947;-64
2023/05/11 02:57:37;;;;;;;;;;;12.40;99.90;;;;;;5016313;28;19944;-66
2023/05/11 03:00:03;;;;;;;;;;;12.30;99.90;;;;;;5027542;28;20402;-67
2023/05/11 03:02:29;;;;;;;;;;;12.30;99.90;;;;;;5015433;28;19929;-66
2023/05/11 03:04:54;;;;;;;;;;;12.30;99.90;;;;;;5013360;28;20019;-67
2023/05/11 03:07:20;;;;;;;;;;;12.30;99.90;;;;;;5014543;28;19931;-67
2023/05/11 03:09:46;;;;;;;;;;;12.20;99.90;;;;;;5015650;28;19932;-67
2023/05/11 03:12:12;;;;;;;;;;;12.30;99.90;;;;;;5032792;28;19936;-67
2023/05/11 03:14:37;;;;;;;;;;;12.20;99.90;;;;;;5023378;28;19921;-67
2023/05/11 03:17:05;;;;;;;;;;;12.20;99.90;;;;;;5020879;28;19988;-67
2023/05/11 03:19:30;;;;;;;;;;;12.20;99.90;;;;;;5032210;28;20391;-66
2023/05/11 03:21:57;;;;;;;;;;;12.20;99.90;;;;;;5032020;28;19925;-66
2023/05/11 03:24:23;;;;;;;;;;;12.20;99.90;;;;;;5018497;28;20431;-66
2023/05/11 03:26:49;;;;;;;;;;;12.20;99.90;;;;;;5032063;28;20077;-67
2023/05/11 03:29:16;;;;;;;;;;;12.10;99.90;;;;;;5032469;28;20410;-67
2023/05/11 03:31:42;;;;;;;;;;;12.10;99.90;;;;;;5026064;28;19988;-67
2023/05/11 03:34:07;;;;;;;;;;;12.10;99.90;;;;;;5031941;28;19960;-67
2023/05/11 03:36:34;;;;;;;;;;;12.10;99.90;;;;;;5031397;28;20030;-66
2023/05/11 03:39:00;;;;;;;;;;;12.00;99.90;;;;;;5026258;28;19925;-67
2023/05/11 03:41:26;;;;;;;;;;;12.00;99.90;;;;;;5014038;28;19936;-67
2023/05/11 03:43:53;;;;;;;;;;;12.00;99.90;;;;;;5031560;28;19921;-67
2023/05/11 03:46:19;;;;;;;;;;;12.00;99.90;;;;;;5039998;28;19987;-67
2023/05/11 03:48:45;;;;;;;;;;;12.10;99.90;;;;;;5021411;28;19925;-67
2023/05/11 03:51:11;;;;;;;;;;;12.10;99.90;;;;;;5028269;28;19921;-66
2023/05/11 03:53:37;;;;;;;;;;;12.10;99.90;;;;;;5031288;28;20387;-66
2023/05/11 03:56:03;;;;;;;;;;;12.10;99.90;;;;;;5032256;28;19921;-67
2023/05/11 03:58:29;;;;;;;;;;;12.10;99.90;;;;;;5013533;28;20364;-67
2023/05/11 04:00:54;;;;;;;;;;;12.10;99.90;;;;;;5024499;28;19927;-67
2023/05/11 04:03:20;;;;;;;;;;;12.10;99.90;;;;;;5032093;28;19964;-67
2023/05/11 04:05:45;;;;;;;;;;;12.10;99.90;;;;;;5015976;28;19925;-67
2023/05/11 04:08:11;;;;;;;;;;;12.10;99.90;;;;;;5030388;28;20172;-68
2023/05/11 04:10:37;;;;;;;;;;;12.20;99.90;;;;;;5031936;28;19921;-67
2023/05/11 04:13:02;;;;;;;;;;;12.20;99.90;;;;;;5020970;28;19968;-68
2023/05/11 04:15:28;;;;;;;;;;;12.20;99.90;;;;;;5030162;28;19928;-67
2023/05/11 04:17:54;;;;;;;;;;;12.20;99.90;;;;;;5011642;28;19925;-67
2023/05/11 04:20:20;;;;;;;;;;;12.30;99.90;;;;;;5022714;28;19928;-65
2023/05/11 04:22:45;;;;;;;;;;;12.30;99.90;;;;;;5037617;28;19924;-67
2023/05/11 04:25:12;;;;;;;;;;;12.30;99.90;;;;;;5036367;28;19928;-64
2023/05/11 04:27:38;;;;;;;;;;;12.30;99.90;;;;;;5031797;28;20300;-64
2023/05/11 04:30:03;;;;;;;;;;;12.30;99.90;;;;;;5025355;28;20403;-64
2023/05/11 04:32:29;;;;;;;;;;;12.30;99.90;;;;;;5022138;28;19975;-64
2023/05/11 04:34:55;;;;;;;;;;;12.30;99.90;;;;;;5039836;28;19925;-65
2023/05/11 04:37:20;;;;;;;;;;;12.20;99.90;;;;;;5027095;28;19931;-64
2023/05/11 04:39:45;;;;;;;;;;;12.30;99.90;;;;;;5022842;28;20342;-64
2023/05/11 04:42:11;;;;;;;;;;;12.30;99.90;;;;;;5014372;28;19969;-64
2023/05/11 04:44:38;;;;;;;;;;;12.30;99.90;;;;;;5029840;28;20384;-66
2023/05/11 04:47:03;;;;;;;;;;;12.30;99.90;;;;;;5031199;28;19921;-64
2023/05/11 04:49:29;;;;;;;;;;;12.30;99.90;;;;;;5033987;28;19921;-66
2023/05/11 04:51:54;;;;;;;;;;;12.30;99.90;;;;;;5023289;28;19928;-64
2023/05/11 04:54:20;;;;;;;;;;;12.30;99.90;;;;;;5028693;28;19944;-64
2023/05/11 04:56:45;;;;;;;;;;;12.30;99.90;;;;;;5022693;28;19928;-65
2023/05/11 04:59:11;;;;;;;;;;;12.30;99.90;;;;;;5026436;28;19921;-64
2023/05/11 05:01:36;;;;;;;;;;;12.30;99.90;;;;;;5034687;28;20401;-64
2023/05/11 05:04:02;;;;;;;;;;;12.20;99.90;;;;;;5025306;28;19952;-64
2023/05/11 05:06:27;;;;;;;;;;;12.20;99.90;;;;;;5020533;28;19921;-64
2023/05/11 05:08:52;;;;;;;;;;;12.20;99.90;;;;;;5019819;28;19936;-64
2023/05/11 05:11:18;;;;;;;;;;;12.20;99.90;;;;;;5018723;28;20691;-64
2023/05/11 05:13:43;;;;;;;;;;;12.20;99.90;;;;;;5020583;28;19921;-68
2023/05/11 05:16:09;;;;;;;;;;;12.30;99.90;;;;;;5020856;28;19929;-64
2023/05/11 05:18:35;;;;;;;;;;;12.30;99.90;;;;;;5022285;28;19928;-64
2023/05/11 05:21:01;;;;;;;;;;;12.20;99.90;;;;;;5015692;28;20561;-65
2023/05/11 05:23:27;;;;;;;;;;;12.30;99.90;;;;;;5019472;28;19982;-64
2023/05/11 05:25:52;;;;;;;;;;;12.40;99.90;;;;;;5021229;28;19979;-65
2023/05/11 05:28:18;;;;;;;;;;;12.40;99.90;;;;;;5018673;28;19925;-64
2023/05/11 05:30:43;;;;;;;;;;;12.50;99.90;;;;;;5030390;28;19960;-64
2023/05/11 05:33:08;;;;;;;;;;;12.50;99.90;;;;;;5031297;28;19929;-64
2023/05/11 05:35:34;;;;;;;;;;;12.50;99.90;;;;;;5034685;28;20051;-65
2023/05/11 05:38:00;;;;;;;;;;;12.60;99.90;;;;;;5023885;28;19928;-64
2023/05/11 05:40:25;;;;;;;;;;;12.70;99.90;;;;;;5026053;28;19921;-65
2023/05/11 05:42:51;;;;;;;;;;;12.70;99.90;;;;;;5030734;28;20344;-67
2023/05/11 05:45:16;;;;;;;;;;;12.70;99.90;;;;;;5013701;28;20309;-67
2023/05/11 05:47:42;;;;;;;;;;;12.80;99.90;;;;;;5027325;28;19925;-67
2023/05/11 05:50:07;;;;;;;;;;;12.90;99.90;;;;;;5017766;28;20384;-64
2023/05/11 05:52:33;;;;;;;;;;;12.90;99.90;;;;;;5022034;28;19932;-67
2023/05/11 05:54:58;;;;;;;;;;;13.10;99.90;;;;;;5029103;28;19922;-67
2023/05/11 05:57:24;;;;;;;;;;;13.00;99.90;;;;;;5014110;28;19968;-67
2023/05/11 05:59:49;;;;;;;;;;;13.10;99.90;;;;;;5013888;28;19957;-67
2023/05/11 06:02:15;;;;;;;;;;;13.20;99.90;;;;;;5018581;28;19921;-65
2023/05/11 06:04:41;;;;;;;;;;;13.20;99.90;;;;;;5020773;28;20406;-64
2023/05/11 06:07:07;;;;;;;;;;;13.20;99.90;;;;;;5031866;28;19987;-64
2023/05/11 06:09:32;;;;;;;;;;;13.30;99.90;;;;;;5024758;28;19921;-64
2023/05/11 06:11:58;;;;;;;;;;;13.30;99.90;;;;;;5034360;28;19964;-65
2023/05/11 06:14:24;;;;;;;;;;;13.30;99.90;;;;;;5020543;28;19927;-64
2023/05/11 06:16:50;;;;;;;;;;;13.30;99.90;;;;;;5033828;28;19922;-65
2023/05/11 06:19:15;;;;;;;;;;;13.30;99.90;;;;;;5014870;28;19928;-65
2023/05/11 06:21:44;;;;;;;;;;;13.30;99.90;;;;;;5017423;28;19929;-64
2023/05/11 06:24:09;;;;;;;;;;;13.20;99.90;;;;;;5023708;28;19921;-64
2023/05/11 06:26:35;;;;;;;;;;;13.20;99.90;;;;;;5030672;28;19921;-64
2023/05/11 06:29:00;;;;;;;;;;;13.20;99.90;;;;;;5026185;28;19932;-63
2023/05/11 06:31:26;;;;;;;;;;;13.10;99.90;;;;;;5032699;28;20388;-63
2023/05/11 06:33:52;;;;;;;;;;;13.10;99.90;;;;;;5030027;28;20023;-64
2023/05/11 06:36:17;;;;;;;;;;;13.10;99.90;;;;;;5019298;28;20012;-64
2023/05/11 06:38:43;;;;;;;;;;;13.00;99.90;;;;;;5029343;28;19928;-64
2023/05/11 06:41:10;;;;;;;;;;;13.00;99.90;;;;;;5013672;28;20060;-63
2023/05/11 06:43:36;;;;;;;;;;;12.90;99.90;;;;;;5015868;28;20342;-64
2023/05/11 06:46:02;;;;;;;;;;;12.90;99.90;;;;;;5028415;28;20431;-64
2023/05/11 06:48:28;;;;;;;;;;;12.90;99.90;;;;;;5024209;28;19932;-65
2023/05/11 06:50:54;;;;;;;;;;;12.90;99.90;;;;;;5025946;28;20032;-64
2023/05/11 06:53:19;;;;;;;;;;;12.80;99.90;;;;;;5029293;28;20016;-67
2023/05/11 06:55:45;;;;;;;;;;;12.80;99.90;;;;;;5032834;28;19921;-66
2023/05/11 06:58:11;;;;;;;;;;;12.80;99.90;;;;;;5033133;28;19921;-66
2023/05/11 07:00:36;;;;;;;;;;;12.70;99.90;;;;;;5022709;28;20411;-66
2023/05/11 07:03:02;;;;;;;;;;;12.80;99.90;;;;;;5021120;28;19921;-66
2023/05/11 07:05:27;;;;;;;;;;;12.80;99.90;;;;;;5024337;28;19925;-64
2023/05/11 07:07:53;;;;;;;;;;;12.80;99.90;;;;;;5026210;28;20400;-64
2023/05/11 07:10:18;;;;;;;;;;;12.80;99.90;;;;;;5027042;28;19928;-64
2023/05/11 07:12:44;;;;;;;;;;;12.90;99.90;;;;;;5030617;28;19975;-64
2023/05/11 07:15:10;;;;;;;;;;;12.80;99.90;;;;;;5032454;28;20383;-63
2023/05/11 07:17:35;;;;;;;;;;;12.80;99.90;;;;;;5024269;28;20193;-63
2023/05/11 07:20:01;;;;;;;;;;;12.90;99.90;;;;;;5025119;28;19965;-64
2023/05/11 07:22:26;;;;;;;;;;;12.90;99.90;;;;;;5031022;28;19929;-65
2023/05/11 07:24:51;;;;;;;;;;;12.90;99.90;;;;;;5025922;28;19928;-64
2023/05/11 07:27:17;;;;;;;;;;;13.00;99.90;;;;;;5027211;28;19921;-65
2023/05/11 07:29:43;;;;;;;;;;;13.00;99.90;;;;;;5031795;28;19927;-64
2023/05/11 07:32:08;;;;;;;;;;;13.00;99.90;;;;;;5027102;28;19975;-64
2023/05/11 07:34:34;;;;;;;;;;;13.00;99.90;;;;;;5020093;28;19925;-63
2023/05/11 07:36:59;;;;;;;;;;;13.00;99.90;;;;;;5023169;28;19932;-66
2023/05/11 07:39:24;;;;;;;;;;;13.00;99.90;;;;;;5030842;28;20004;-66
2023/05/11 07:41:50;;;;;;;;;;;13.00;99.90;;;;;;5024473;28;19921;-66
2023/05/11 07:44:15;;;;;;;;;;;13.00;99.90;;;;;;5031399;28;19947;-66
2023/05/11 07:46:41;;;;;;;;;;;13.00;99.90;;;;;;5029532;28;19929;-66
2023/05/11 07:49:08;;;;;;;;;;;13.00;99.90;;;;;;5026750;28;19951;-64
2023/05/11 07:51:34;;;;;;;;;;;13.10;99.90;;;;;;5013511;28;19925;-64
2023/05/11 07:54:00;;;;;;;;;;;13.10;99.90;;;;;;5020753;28;19928;-63
2023/05/11 07:56:25;;;;;;;;;;;13.20;99.90;;;;;;5029457;28;19963;-63
2023/05/11 07:58:51;;;;;;;;;;;13.30;99.90;;;;;;5024308;28;20387;-67
2023/05/11 08:01:16;;;;;;;;;;;13.30;99.90;;;;;;5030728;28;20292;-64
2023/05/11 08:03:42;;;;;;;;;;;13.40;99.90;;;;;;5031001;28;19925;-64
2023/05/11 08:06:07;;;;;;;;;;;13.40;99.90;;;;;;5023850;28;19921;-64
2023/05/11 08:08:33;;;;;;;;;;;13.40;99.90;;;;;;5026921;28;19931;-63
2023/05/11 08:10:59;;;;;;;;;;;13.50;99.90;;;;;;5024454;28;19921;-64
2023/05/11 08:13:25;;;;;;;;;;;13.60;99.90;;;;;;5026409;28;19968;-64
2023/05/11 08:15:50;;;;;;;;;;;13.60;99.90;;;;;;5021213;28;20050;-66
2023/05/11 08:18:16;;;;;;;;;;;13.70;99.90;;;;;;5018136;28;20372;-65
2023/05/11 08:20:42;;;;;;;;;;;13.70;99.90;;;;;;5028963;28;19975;-66
2023/05/11 08:23:09;;;;;;;;;;;13.70;99.90;;;;;;5030638;28;19975;-65
2023/05/11 08:25:34;;;;;;;;;;;13.80;99.90;;;;;;5026516;28;19966;-66
2023/05/11 08:28:00;;;;;;;;;;;13.70;99.90;;;;;;5030683;28;19929;-64
2023/05/11 08:30:26;;;;;;;;;;;13.80;99.90;;;;;;5028091;28;20423;-66
2023/05/11 08:32:51;;;;;;;;;;;13.80;99.90;;;;;;5020085;28;20051;-64
2023/05/11 08:35:17;;;;;;;;;;;13.80;99.90;;;;;;5025323;28;19925;-64
2023/05/11 08:37:42;;;;;;;;;;;13.80;99.90;;;;;;5031706;28;19928;-64
2023/05/11 08:40:09;;;;;;;;;;;13.80;99.90;;;;;;5018583;28;20012;-63
2023/05/11 08:42:36;;;;;;;;;;;13.80;99.90;;;;;;5021452;28;19921;-64
2023/05/11 08:45:02;;;;;;;;;;;13.90;99.90;;;;;;5031254;28;20383;-65
2023/05/11 08:47:28;;;;;;;;;;;14.00;99.90;;;;;;5021644;28;20348;-66
2023/05/11 08:49:54;;;;;;;;;;;14.20;99.90;;;;;;5014621;28;19921;-62
2023/05/11 08:52:20;;;;;;;;;;;14.40;99.90;;;;;;5018508;28;19921;-66
2023/05/11 08:54:46;;;;;;;;;;;14.70;99.90;;;;;;5027988;28;20283;-66
2023/05/11 08:57:12;;;;;;;;;;;15.00;99.90;;;;;;5024452;28;20020;-66
2023/05/11 08:59:38;;;;;;;;;;;15.10;99.90;;;;;;5028785;28;19925;-64
2023/05/11 09:02:03;;;;;;;;;;;15.20;99.90;;;;;;5031572;28;20429;-64
2023/05/11 09:04:29;;;;;;;;;;;15.30;99.90;;;;;;5024299;28;19932;-65
2023/05/11 09:06:55;;;;;;;;;;;15.40;99.90;;;;;;5021124;28;19921;-64
2023/05/11 09:09:21;;;;;;;;;;;15.40;99.90;;;;;;5030607;28;20013;-64
2023/05/11 09:11:46;;;;;;;;;;;15.40;99.90;;;;;;5031477;28;19921;-64
2023/05/11 09:14:12;;;;;;;;;;;15.50;99.90;;;;;;5025166;28;20011;-65
2023/05/11 09:16:37;;;;;;;;;;;15.60;99.90;;;;;;5026205;28;19968;-64
2023/05/11 09:19:04;;;;;;;;;;;15.50;99.90;;;;;;5031335;28;19920;-64
2023/05/11 09:21:30;;;;;;;;;;;15.60;99.90;;;;;;5019452;28;19985;-65
2023/05/11 09:23:57;;;;;;;;;;;15.60;99.90;;;;;;5030464;28;19921;-65
2023/05/11 09:26:24;;;;;;;;;;;15.60;99.90;;;;;;5030906;28;20376;-64
2023/05/11 09:28:53;;;;;;;;;;;15.60;99.90;;;;;;5030742;28;20204;-66
2023/05/11 09:31:35;;;;;;;;;;;15.70;99.90;;;;;;5023639;28;19929;-67
2023/05/11 09:34:07;;;;;;;;;;;15.70;99.90;;;;;;5027353;28;19921;-67
2023/05/11 09:36:33;;;;;;;;;;;15.80;99.90;;;;;;5031389;28;20406;-67
2023/05/11 09:39:01;;;;;;;;;;;15.90;99.90;;;;;;5023278;28;19921;-67
2023/05/11 09:41:26;;;;;;;;;;;15.90;99.90;;;;;;5030390;28;19929;-67
2023/05/11 09:43:52;;;;;;;;;;;15.90;99.90;;;;;;5025144;28;19928;-67
2023/05/11 09:46:20;;;;;;;;;;;15.90;99.90;;;;;;5026931;28;20015;-67
2023/05/11 09:48:56;;;;;;;;;;;15.80;99.90;;;;;;5023502;28;20471;-67
2023/05/11 09:51:28;;;;;;;;;;;15.80;99.90;;;;;;5026669;28;19928;-67
2023/05/11 09:53:53;;;;;;;;;;;15.70;99.90;;;;;;5019459;28;19928;-67
2023/05/11 09:56:20;;;;;;;;;;;15.70;99.90;;;;;;5025983;28;19925;-66
2023/05/11 09:58:56;;;;;;;;;;;15.70;99.90;;;;;;5028495;28;19921;-67
2023/05/11 10:01:31;;;;;;;;;;;15.80;99.90;;;;;;5025254;28;19921;-66
2023/05/11 10:03:57;;;;;;;;;;;15.90;99.90;;;;;;5023750;28;19933;-67
2023/05/11 10:06:23;;;;;;;;;;;16.10;99.90;;;;;;5024148;28;19925;-65
2023/05/11 10:08:49;;;;;;;;;;;16.20;99.90;;;;;;5024679;28;19935;-67
2023/05/11 10:11:14;;;;;;;;;;;16.40;99.90;;;;;;5026596;28;19999;-67
2023/05/11 10:13:41;;;;;;;;;;;16.50;99.90;;;;;;5027499;28;19922;-67
2023/05/11 10:16:08;;;;;;;;;;;16.70;99.90;;;;;;5025083;28;19928;-67
2023/05/11 10:18:35;;;;;;;;;;;16.80;99.90;;;;;;5027584;28;20481;-66
2023/05/11 10:21:00;;;;;;;;;;;16.90;99.90;;;;;;5025002;28;20287;-66
2023/05/11 10:23:26;;;;;;;;;;;17.00;99.90;;;;;;5025710;28;19932;-67
2023/05/11 10:25:52;;;;;;;;;;;17.00;99.90;;;;;;5033345;28;19921;-66
2023/05/11 10:28:18;;;;;;;;;;;17.10;99.90;;;;;;5025611;28;19929;-66
2023/05/11 10:30:45;;;;;;;;;;;16.90;99.90;;;;;;5029488;28;19921;-67
2023/05/11 10:33:12;;;;;;;;;;;16.80;99.90;;;;;;5029003;28;19975;-65
2023/05/11 10:35:37;;;;;;;;;;;16.70;99.90;;;;;;5020828;28;19929;-64
2023/05/11 10:38:03;;;;;;;;;;;16.50;99.90;;;;;;5024458;28;20004;-64
2023/05/11 10:40:29;;;;;;;;;;;16.30;99.90;;;;;;5019618;28;19921;-64
2023/05/11 10:43:17;;;;;;;;;;;16.20;99.90;;;;;;5030312;28;19973;-65
2023/05/11 10:45:50;;;;;;;;;;;16.00;99.90;;;;;;5020675;28;19991;-64
2023/05/11 10:48:34;;;;;;;;;;;16.00;99.90;;;;;;5031945;28;20324;-65
2023/05/11 10:51:18;;;;;;;;;;;16.10;99.90;;;;;;5013922;28;19928;-65
2023/05/11 10:54:02;;;;;;;;;;;16.20;99.90;;;;;;5023534;28;20012;-65
2023/05/11 10:56:38;;;;;;;;;;;16.20;99.90;;;;;;5029788;28;20015;-65
2023/05/11 10:59:22;;;;;;;;;;;16.40;99.90;;;;;;5033457;28;20059;-65
2023/05/11 11:01:50;;;;;;;;;;;16.70;99.90;;;;;;5028909;28;20359;-66
2023/05/11 11:04:16;;;;;;;;;;;16.80;99.90;;;;;;5032830;28;19928;-64
2023/05/11 11:06:42;;;;;;;;;;;17.00;99.90;;;;;;5032528;28;19921;-65
2023/05/11 11:09:15;;;;;;;;;;;17.00;99.90;;;;;;5032638;28;19937;-65
2023/05/11 11:11:44;;;;;;;;;;;17.00;99.90;;;;;;5018200;28;20000;-68
2023/05/11 11:14:11;;;;;;;;;;;17.10;99.90;;;;;;5023996;28;20368;-65
2023/05/11 11:16:37;;;;;;;;;;;17.10;99.90;;;;;;5030513;28;19925;-67
2023/05/11 11:19:22;;;;;;;;;;;17.20;99.90;;;;;;5021053;28;19967;-63
2023/05/11 11:21:47;;;;;;;;;;;17.20;99.90;;;;;;5026568;28;19921;-66
2023/05/11 11:24:31;;;;;;;;;;;17.30;99.90;;;;;;5025003;28;19926;-64
2023/05/11 11:26:57;;;;;;;;;;;17.50;99.90;;;;;;5015717;28;19925;-66
2023/05/11 11:29:23;;;;;;;;;;;17.50;99.90;;;;;;5018013;28;19931;-63
2023/05/11 11:31:48;;;;;;;;;;;17.60;99.90;;;;;;5031520;28;20000;-64
2023/05/11 11:34:26;;;;;;;;;;;17.60;99.90;;;;;;5023957;28;20261;-66
2023/05/11 11:36:54;;;;;;;;;;;17.70;99.90;;;;;;5023321;28;19929;-66
2023/05/11 11:39:38;;;;;;;;;;;17.80;99.90;;;;;;5029507;28;20004;-64
2023/05/11 11:42:05;;;;;;;;;;;17.70;99.90;;;;;;5045457;23;19924;-63
2023/05/11 11:44:34;;;;;;;;;;;17.80;99.90;;;;;;5030674;28;19925;-62
2023/05/11 11:47:16;;;;;;;;;;;17.80;99.90;;;;;;5043495;28;19931;-63
2023/05/11 11:49:46;;;;;;;;;;;17.90;99.90;;;;;;5045513;28;19921;-65
2023/05/11 11:52:27;;;;;;;;;;;18.10;99.90;;;;;;5038073;28;19925;-65
2023/05/11 11:54:53;;;;;;;;;;;18.20;99.90;;;;;;5048131;28;20414;-62
2023/05/11 11:57:31;;;;;;;;;;;18.20;99.90;;;;;;5050089;28;20454;-62
2023/05/11 11:59:58;;;;;;;;;;;18.30;99.90;;;;;;5039095;28;20405;-63
2023/05/11 12:02:24;;;;;;;;;;;18.30;99.90;;;;;;5044103;28;20348;-62
2023/05/11 12:04:58;;;;;;;;;;;18.40;99.90;;;;;;5051018;28;19968;-63
2023/05/11 12:07:25;;;;;;;;;;;18.60;99.90;;;;;;5044579;28;19929;-63
2023/05/11 12:09:51;;;;;;;;;;;18.70;99.90;;;;;;5030366;28;19925;-61
2023/05/11 12:12:18;;;;;;;;;;;18.60;99.90;;;;;;5041374;28;20284;-64
2023/05/11 12:14:47;;;;;;;;;;;18.70;99.90;;;;;;5039259;28;20413;-65
2023/05/11 12:17:15;;;;;;;;;;;18.60;99.90;;;;;;5051428;28;19968;-61
2023/05/11 12:19:41;;;;;;;;;;;18.50;99.90;;;;;;5050415;28;20374;-66
2023/05/11 12:22:09;;;;;;;;;;;18.60;99.90;;;;;;5043421;28;19925;-61
2023/05/11 12:24:36;;;;;;;;;;;18.60;99.90;;;;;;5036594;28;20387;-62
2023/05/11 12:27:02;;;;;;;;;;;18.70;99.90;;;;;;5039865;28;19921;-63
2023/05/11 12:29:28;;;;;;;;;;;18.60;99.90;;;;;;5051062;28;19967;-62
2023/05/11 12:31:54;;;;;;;;;;;18.60;99.90;;;;;;5051763;28;19964;-62
2023/05/11 12:34:21;;;;;;;;;;;18.70;99.90;;;;;;5038941;28;19921;-63
2023/05/11 12:36:48;;;;;;;;;;;18.80;99.90;;;;;;5051154;28;19925;-63
2023/05/11 12:39:24;;;;;;;;;;;18.70;99.90;;;;;;5051221;28;19925;-62
2023/05/11 12:41:51;;;;;;;;;;;18.80;99.90;;;;;;5045129;28;19921;-64
2023/05/11 12:44:17;;;;;;;;;;;18.70;99.90;;;;;;5041906;28;19928;-65
2023/05/11 12:46:46;;;;;;;;;;;18.70;99.90;;;;;;5051340;28;19927;-64
2023/05/11 12:49:14;;;;;;;;;;;18.60;99.90;;;;;;5051431;28;20446;-62
2023/05/11 12:51:43;;;;;;;;;;;18.60;99.90;;;;;;5036565;28;19925;-64
2023/05/11 12:54:09;;;;;;;;;;;18.60;99.90;;;;;;5045144;28;19932;-65
2023/05/11 12:56:45;;;;;;;;;;;18.70;99.90;;;;;;5051031;28;19921;-64
2023/05/11 12:59:30;;;;;;;;;;;18.60;99.90;;;;;;5044407;28;19921;-65
2023/05/11 13:02:03;;;;;;;;;;;18.60;99.90;;;;;;5043870;28;19982;-66
2023/05/11 13:04:29;;;;;;;;;;;18.60;99.90;;;;;;5051559;28;19964;-65
2023/05/11 13:06:55;;;;;;;;;;;18.60;99.90;;;;;;5038317;28;19963;-64
2023/05/11 13:09:21;;;;;;;;;;;18.60;99.90;;;;;;5047538;28;20374;-65
2023/05/11 13:11:46;;;;;;;;;;;18.60;99.90;;;;;;5054802;28;19932;-64
2023/05/11 13:14:15;;;;;;;;;;;18.50;99.90;;;;;;5052385;28;19920;-65
2023/05/11 13:16:51;;;;;;;;;;;18.40;99.90;;;;;;5045761;28;19924;-63
2023/05/11 13:19:26;;;;;;;;;;;18.40;99.90;;;;;;5054472;28;19921;-64
2023/05/11 13:21:51;;;;;;;;;;;18.40;99.90;;;;;;5055161;28;20077;-64
2023/05/11 13:24:20;;;;;;;;;;;18.30;99.90;;;;;;5048527;28;20397;-65
2023/05/11 13:26:46;;;;;;;;;;;18.20;99.90;;;;;;5047175;28;20011;-63
2023/05/11 13:29:12;;;;;;;;;;;18.00;99.90;;;;;;5054423;28;20366;-63
2023/05/11 13:31:55;;;;;;;;;;;17.90;99.90;;;;;;5047820;28;19929;-66
2023/05/11 13:34:21;;;;;;;;;;;17.80;99.90;;;;;;5038109;28;20445;-65
2023/05/11 13:36:47;;;;;;;;;;;17.80;99.90;;;;;;5045710;28;19921;-65
2023/05/11 13:39:12;;;;;;;;;;;17.60;99.90;;;;;;5052848;28;19925;-65
2023/05/11 13:41:38;;;;;;;;;;;17.60;99.90;;;;;;5049951;28;19929;-64
2023/05/11 13:44:03;;;;;;;;;;;17.60;99.90;;;;;;5048403;28;19921;-65
2023/05/11 13:46:29;;;;;;;;;;;17.70;99.90;;;;;;5054480;28;19924;-65
2023/05/11 13:48:54;;;;;;;;;;;17.70;99.90;;;;;;5040816;28;19928;-64
2023/05/11 13:51:20;;;;;;;;;;;17.80;99.90;;;;;;5043591;28;19947;-64
2023/05/11 13:53:46;;;;;;;;;;;17.90;99.90;;;;;;5040815;28;20011;-62
2023/05/11 13:56:12;;;;;;;;;;;18.00;99.90;;;;;;5043871;28;20533;-62
2023/05/11 13:58:37;;;;;;;;;;;18.20;99.90;;;;;;5042342;28;19921;-64
2023/05/11 14:01:03;;;;;;;;;;;18.20;99.90;;;;;;5044492;28;21700;-65
2023/05/11 14:03:30;;;;;;;;;;;18.20;99.90;;;;;;5053763;28;19925;-64
2023/05/11 14:05:56;;;;;;;;;;;18.30;99.90;;;;;;5016857;28;19921;-62
2023/05/11 14:08:21;;;;;;;;;;;18.30;99.90;;;;;;5041663;28;19921;-62
2023/05/11 14:10:47;;;;;;;;;;;18.40;99.90;;;;;;5052755;28;19931;-63
2023/05/11 14:13:12;;;;;;;;;;;18.40;99.90;;;;;;5046295;28;19924;-62
2023/05/11 14:15:38;;;;;;;;;;;18.50;99.90;;;;;;5048962;28;19921;-66